Time;durP1;ratioP1;P1;durP2;ratioP2;P2;SDS_P1;SDS_P2;PMS_P1;PMS_P2;Temp;Humidity;BMP_temperature;BMP_pressure;BME280_temperature;BME280_humidity;BME280_pressure;Samples;Min_cycle;Max_cycle;Signal;HPM_P1;HPM_P2
2022/08/04 00:00:23;;;;;;;12.70;4.50;;;;;;;22.95;73.75;101065.19;5113382;28;20031;-85
2022/08/04 00:02:58;;;;;;;15.43;4.47;;;;;;;22.91;73.48;101064.13;5095926;28;20489;-84
2022/08/04 00:05:48;;;;;;;11.10;4.18;;;;;;;22.87;73.39;101054.75;5113303;28;20024;-83
2022/08/04 00:08:40;;;;;;;9.65;4.22;;;;;;;22.82;74.28;101047.34;5114559;28;20043;-84
2022/08/04 00:11:08;;;;;;;12.45;4.40;;;;;;;22.77;74.79;101058.47;5111921;28;20131;-84
2022/08/04 00:13:38;;;;;;;15.07;3.70;;;;;;;22.76;74.27;101049.34;5112886;28;20059;-84
2022/08/04 00:16:07;;;;;;;12.13;4.10;;;;;;;22.74;74.60;101039.69;5112773;28;20028;-84
2022/08/04 00:18:39;;;;;;;6.60;3.65;;;;;;;22.71;75.20;101051.34;5113241;28;20038;-84
2022/08/04 00:21:06;;;;;;;8.82;3.90;;;;;;;22.65;75.98;101039.50;5113979;28;20110;-84
2022/08/04 00:23:36;;;;;;;7.35;3.95;;;;;;;22.58;74.91;101047.31;5112924;28;20034;-84
2022/08/04 00:26:02;;;;;;;11.95;3.85;;;;;;;22.55;74.62;101040.44;5114146;28;20030;-84
2022/08/04 00:28:28;;;;;;;8.03;3.90;;;;;;;22.50;74.04;101034.13;5112556;28;20138;-84
2022/08/04 00:30:54;;;;;;;10.98;3.60;;;;;;;22.49;73.39;101041.59;5113773;28;20024;-84
2022/08/04 00:33:20;;;;;;;9.67;3.30;;;;;;;22.45;72.17;101032.22;5112736;28;20027;-84
2022/08/04 00:35:50;;;;;;;9.85;3.80;;;;;;;22.44;72.10;101033.38;5112871;28;20546;-84
2022/08/04 00:38:16;;;;;;;8.65;3.38;;;;;;;22.45;71.77;101020.34;5112887;28;20382;-84
2022/08/04 00:40:56;;;;;;;9.82;3.97;;;;;;;22.47;70.98;101029.19;5095619;28;20032;-84
2022/08/04 00:43:41;;;;;;;8.97;3.37;;;;;;;22.46;70.74;101033.06;5112829;28;20027;-84
2022/08/04 00:46:34;;;;;;;9.60;3.47;;;;;;;22.49;69.91;101030.53;5113087;28;20118;-84
2022/08/04 00:49:37;;;;;;;12.13;3.28;;;;;;;22.49;69.66;101026.97;5112572;28;20110;-85
2022/08/04 00:52:14;;;;;;;7.60;3.45;;;;;;;22.46;69.53;101025.59;5112663;28;20023;-84
2022/08/04 00:55:38;;;;;;;8.77;3.20;;;;;;;22.48;69.46;101019.78;5112621;28;20031;-84
2022/08/04 00:58:28;;;;;;;10.40;3.10;;;;;;;22.45;69.24;101029.47;5035138;28;20122;-85
2022/08/04 01:01:00;;;;;;;7.93;3.13;;;;;;;22.39;70.91;101017.63;5113801;28;20027;-84
2022/08/04 01:03:31;;;;;;;7.32;3.42;;;;;;;22.38;70.62;101021.53;5112751;28;20059;-84
2022/08/04 01:06:08;;;;;;;8.90;3.00;;;;;;;22.39;71.56;101016.81;5112652;28;20088;-84
2022/08/04 01:08:54;;;;;;;10.68;3.22;;;;;;;22.32;71.28;101016.31;5114054;28;20530;-84
2022/08/04 01:11:51;;;;;;;9.73;3.10;;;;;;;22.30;70.93;101013.00;5113597;28;20028;-85
2022/08/04 01:14:41;;;;;;;14.43;3.20;;;;;;;22.28;71.33;101010.53;5113814;28;20023;-84
2022/08/04 01:17:27;;;;;;;11.93;4.00;;;;;;;22.28;70.44;101005.00;5112540;28;20361;-84
2022/08/04 01:20:05;;;;;;;9.25;3.30;;;;;;;22.25;69.80;101000.88;5113321;28;20059;-84
2022/08/04 01:22:30;;;;;;;9.73;3.45;;;;;;;22.28;69.29;101004.16;5114626;28;20109;-84
2022/08/04 01:25:23;;;;;;;13.13;3.90;;;;;;;22.30;69.05;101001.94;5117642;28;20035;-84
2022/08/04 01:28:11;;;;;;;15.93;3.45;;;;;;;22.31;68.84;100998.91;5117189;28;20051;-84
2022/08/04 01:30:41;;;;;;;12.30;4.00;;;;;;;22.32;68.75;101000.59;5116124;28;20486;-84
2022/08/04 01:33:13;;;;;;;14.27;3.47;;;;;;;22.31;68.10;100995.28;5116011;28;20031;-84
2022/08/04 01:35:48;;;;;;;14.27;3.65;;;;;;;22.31;68.63;100989.75;5116007;28;20031;-84
2022/08/04 01:38:32;;;;;;;7.80;3.30;;;;;;;22.28;68.19;100982.91;5117267;28;20024;-84
2022/08/04 01:41:28;;;;;;;10.30;3.40;;;;;;;22.28;68.38;100988.44;5115536;28;20031;-84
2022/08/04 01:43:54;;;;;;;12.57;3.63;;;;;;;22.29;68.81;100986.47;5116168;28;20498;-84
2022/08/04 01:46:24;;;;;;;10.73;3.47;;;;;;;22.27;68.73;100980.44;5116891;28;20136;-84
2022/08/04 01:48:56;;;;;;;9.88;3.20;;;;;;;22.28;68.41;100982.06;5116217;28;20146;-84
2022/08/04 01:51:23;;;;;;;8.60;3.08;;;;;;;22.28;68.41;100988.44;5115760;28;20023;-84
2022/08/04 01:53:49;;;;;;;9.43;3.53;;;;;;;22.27;68.77;100985.97;5116717;28;20035;-84
2022/08/04 01:56:15;;;;;;;12.57;3.20;;;;;;;22.22;68.33;100986.84;5099028;28;20039;-84
2022/08/04 01:58:40;;;;;;;12.70;3.37;;;;;;;22.23;68.22;100980.16;5098597;28;20077;-84
2022/08/04 02:01:08;;;;;;;10.25;3.25;;;;;;;22.19;68.62;100979.94;5098147;28;20403;-84
2022/08/04 02:03:36;;;;;;;8.10;2.83;;;;;;;22.17;68.24;100978.56;5115026;28;20027;-84
2022/08/04 02:06:20;;;;;;;7.82;2.97;;;;;;;22.14;68.30;100979.16;5098569;28;20042;-84
2022/08/04 02:08:57;;;;;;;10.17;2.50;;;;;;;22.13;67.81;100975.59;5115471;28;20042;-84
2022/08/04 02:11:23;;;;;;;9.70;2.90;;;;;;;22.15;67.76;100972.53;5114976;28;20060;-84
2022/08/04 02:13:53;;;;;;;9.52;2.50;;;;;;;22.14;68.05;100968.09;5097869;28;20024;-84
2022/08/04 02:16:36;;;;;;;14.27;2.70;;;;;;;22.15;67.40;100975.28;5115118;28;20035;-84
2022/08/04 02:19:45;;;;;;;7.03;2.70;;;;;;;22.13;66.76;100970.06;5115188;28;20391;-84
2022/08/04 02:22:16;;;;;;;10.10;2.67;;;;;;;22.13;67.63;100969.22;5115021;28;20062;-84
2022/08/04 02:24:48;;;;;;;9.75;2.72;;;;;;;22.06;67.64;100962.09;5115249;28;20023;-85
2022/08/04 02:27:15;;;;;;;8.60;2.90;;;;;;;22.06;67.37;100961.28;5114907;28;20063;-84
2022/08/04 02:29:57;;;;;;;7.53;2.60;;;;;;;22.02;67.26;100955.50;5114504;28;20035;-84
2022/08/04 02:32:38;;;;;;;9.95;2.60;;;;;;;22.01;67.46;100955.78;5114101;28;20118;-84
2022/08/04 02:35:22;;;;;;;10.00;2.83;;;;;;;21.99;68.25;100955.25;5114949;28;20365;-84
2022/08/04 02:37:54;;;;;;;10.20;2.50;;;;;;;21.97;68.13;100954.72;5115042;28;20062;-84
2022/08/04 02:40:21;;;;;;;6.05;2.60;;;;;;;21.96;68.06;100955.84;5114224;28;20595;-84
2022/08/04 02:42:46;;;;;;;10.35;2.60;;;;;;;21.94;67.59;100947.00;5114551;28;20062;-84
2022/08/04 02:45:12;;;;;;;9.27;2.70;;;;;;;21.93;67.85;100948.94;5114527;28;20067;-84
2022/08/04 02:47:38;;;;;;;5.55;2.30;;;;;;;21.94;67.59;100947.00;5114422;28;20490;-84
2022/08/04 02:50:07;;;;;;;11.27;2.65;;;;;;;21.95;67.68;100949.47;5115422;28;20024;-84
2022/08/04 02:52:34;;;;;;;10.25;3.10;;;;;;;21.94;67.55;100935.94;5113970;28;20088;-84
2022/08/04 02:55:00;;;;;;;8.53;2.60;;;;;;;21.94;67.49;100933.19;5115572;28;20446;-84
2022/08/04 02:57:29;;;;;;;11.15;3.15;;;;;;;21.94;67.60;100933.19;5115535;28;20042;-84
2022/08/04 03:00:12;;;;;;;12.52;2.60;;;;;;;21.97;67.43;100929.84;5115525;28;20075;-84
2022/08/04 03:03:13;;;;;;;12.15;2.88;;;;;;;21.96;67.05;100928.22;5113996;28;20051;-84
2022/08/04 03:05:53;;;;;;;12.68;2.90;;;;;;;21.95;66.73;100930.13;5104149;28;20139;-84
2022/08/04 03:08:43;;;;;;;7.30;2.63;;;;;;;21.95;67.04;100929.31;5115446;28;20077;-84
2022/08/04 03:11:39;;;;;;;9.90;2.55;;;;;;;21.92;66.97;100927.16;5113602;28;20028;-84
2022/08/04 03:14:26;;;;;;;11.00;2.90;;;;;;;21.93;66.90;100926.84;5113617;28;20039;-84
2022/08/04 03:17:16;;;;;;;19.05;2.80;;;;;;;21.92;67.10;100935.44;5113961;28;20060;-84
2022/08/04 03:19:57;;;;;;;9.32;2.83;;;;;;;21.85;68.64;100946.78;5113876;28;20038;-83
2022/08/04 03:22:31;;;;;;;9.90;2.80;;;;;;;21.84;67.25;100973.59;5114834;28;20051;-84
2022/08/04 03:25:22;;;;;;;8.75;2.80;;;;;;;21.80;67.99;100971.72;5115040;28;20073;-84
2022/08/04 03:28:23;;;;;;;10.40;2.88;;;;;;;21.72;68.94;100967.63;5115133;28;20032;-84
2022/08/04 03:31:19;;;;;;;9.98;2.72;;;;;;;21.62;68.05;100956.66;5113762;28;20119;-85
2022/08/04 03:34:22;;;;;;;9.70;2.70;;;;;;;21.58;69.19;100950.06;5114823;28;20062;-84
2022/08/04 03:37:28;;;;;;;10.23;3.20;;;;;;;21.47;69.77;100961.13;5113440;28;20122;-84
2022/08/04 03:40:21;;;;;;;12.90;3.40;;;;;;;21.38;70.35;100951.81;5114474;28;20023;-84
2022/08/04 03:43:24;;;;;;;13.82;3.40;;;;;;;21.31;70.12;100952.13;5113443;28;20024;-84
2022/08/04 03:45:52;;;;;;;8.27;3.13;;;;;;;21.22;72.24;100953.03;5113945;28;20368;-84
2022/08/04 03:48:38;;;;;;;10.48;3.35;;;;;;;21.17;72.50;100962.97;5114555;28;20540;-84
2022/08/04 03:54:03;;;;;;;19.33;4.13;;;;;;;20.94;73.20;100978.25;5114215;28;20034;-84
2022/08/04 03:56:56;;;;;;;16.73;4.70;;;;;;;20.88;72.23;100976.63;5113119;28;20038;-84
2022/08/04 03:59:40;;;;;;;15.73;4.43;;;;;;;20.77;74.19;100981.34;5113680;28;20023;-84
2022/08/04 04:02:21;;;;;;;9.45;4.40;;;;;;;20.72;73.98;100978.59;5112849;28;20055;-84
2022/08/04 04:05:19;;;;;;;18.37;4.73;;;;;;;20.63;75.53;100983.00;5114630;28;20052;-84
2022/08/04 04:08:03;;;;;;;16.10;4.22;;;;;;;20.58;74.34;100983.00;5024457;28;20045;-84
2022/08/04 04:10:52;;;;;;;14.98;5.35;;;;;;;20.56;74.69;100977.78;5112403;28;20032;-84
2022/08/04 04:13:55;;;;;;;18.92;4.78;;;;;;;20.57;74.66;100979.44;5099285;28;20035;-84
2022/08/04 04:17:19;;;;;;;20.52;4.65;;;;;;;20.60;74.10;100987.16;5114239;28;20024;-84
2022/08/04 04:20:03;;;;;;;17.20;4.47;;;;;;;20.58;75.81;100974.75;5083928;28;20035;-84
2022/08/04 04:22:54;;;;;;;14.93;5.10;;;;;;;20.56;75.32;100979.72;5112649;28;20024;-83
2022/08/04 04:25:28;;;;;;;10.35;4.50;;;;;;;20.59;76.08;100977.22;5114361;28;20045;-84
2022/08/04 04:28:20;;;;;;;9.88;4.60;;;;;;;20.60;75.42;100976.13;5114406;28;20052;-84
2022/08/04 04:31:00;;;;;;;14.48;4.53;;;;;;;20.61;76.04;100977.78;5112891;28;20023;-84
2022/08/04 04:33:43;;;;;;;10.53;4.60;;;;;;;20.67;76.85;100984.97;5114188;28;20035;-84
2022/08/04 04:36:36;;;;;;;13.98;4.88;;;;;;;20.72;77.79;100983.31;5112538;28;20028;-84
2022/08/04 04:39:19;;;;;;;9.13;4.68;;;;;;;20.80;77.01;100982.72;5112773;28;20028;-84
2022/08/04 04:42:13;;;;;;;10.60;4.55;;;;;;;20.89;75.28;100983.81;5113888;28;20071;-84
2022/08/04 04:45:03;;;;;;;9.13;4.55;;;;;;;20.97;75.02;100977.69;5067426;28;20094;-84
2022/08/04 04:47:49;;;;;;;11.53;4.43;;;;;;;21.09;74.58;100980.09;5112994;28;20473;-84
2022/08/04 04:50:30;;;;;;;9.63;4.80;;;;;;;21.17;75.12;100986.97;5112563;28;20024;-83
2022/08/04 04:53:18;;;;;;;10.10;4.15;;;;;;;21.26;75.07;100985.28;5113687;28;20027;-84
2022/08/04 04:55:58;;;;;;;10.73;4.85;;;;;;;21.34;75.86;100986.63;5113268;28;20134;-84
2022/08/04 04:58:25;;;;;;;10.65;4.50;;;;;;;21.42;75.13;100997.06;5118280;28;20023;-83
2022/08/04 05:01:12;;;;;;;18.43;4.90;;;;;;;21.48;74.89;100995.06;5099252;28;20028;-84
2022/08/04 05:03:56;;;;;;;15.00;4.80;;;;;;;21.51;75.04;101000.06;5116613;28;20110;-84
2022/08/04 05:06:38;;;;;;;14.52;4.88;;;;;;;21.49;74.20;100999.50;5116784;28;20040;-84
2022/08/04 05:09:29;;;;;;;13.20;4.70;;;;;;;21.54;73.85;100994.81;5117795;28;20023;-84
2022/08/04 05:12:14;;;;;;;10.77;4.97;;;;;;;21.56;74.02;100989.00;5116189;28;20039;-84
2022/08/04 05:14:46;;;;;;;14.37;5.17;;;;;;;21.65;74.74;100994.75;5065016;28;20467;-84
2022/08/04 05:17:26;;;;;;;13.50;5.28;;;;;;;21.74;74.44;100987.47;5117352;28;20421;-84
2022/08/04 05:20:04;;;;;;;14.48;5.03;;;;;;;21.79;74.36;100997.66;5116282;28;20023;-85
2022/08/04 05:22:42;;;;;;;12.38;4.85;;;;;;;21.85;75.01;101002.03;5116556;28;20049;-89
2022/08/04 05:25:14;;;;;;;12.57;4.78;;;;;;;21.93;74.86;101001.44;5116469;28;20072;-90
2022/08/04 05:27:45;;;;;;;14.10;4.83;;;;;;;22.02;73.93;100996.94;5117685;28;20026;-91
2022/08/04 05:30:14;;;;;;;14.15;4.70;;;;;;;22.11;73.66;100986.09;5116475;28;20124;-89
2022/08/04 05:33:09;;;;;;;13.48;4.70;;;;;;;22.27;72.97;100986.78;5116162;28;20023;-89
2022/08/04 05:35:41;;;;;;;14.63;5.18;;;;;;;22.43;73.15;100982.75;5113559;28;20132;-87
2022/08/04 05:38:13;;;;;;;14.63;4.80;;;;;;;22.60;72.61;100985.09;5116025;28;20023;-89
2022/08/04 05:40:39;;;;;;;13.00;5.17;;;;;;;22.70;71.77;100975.84;5116165;28;20027;-87
2022/08/04 05:43:06;;;;;;;19.35;5.38;;;;;;;22.83;71.74;100967.97;5116056;28;20061;-88
2022/08/04 05:45:34;;;;;;;16.33;5.60;;;;;;;22.94;71.66;100966.69;5116834;28;20073;-89
2022/08/04 05:48:06;;;;;;;11.07;4.90;;;;;;;23.04;70.90;100974.06;5098636;28;20027;-88
2022/08/04 05:50:32;;;;;;;13.38;4.68;;;;;;;23.17;70.30;100973.34;5116049;28;20077;-88
2022/08/04 05:53:05;;;;;;;19.20;5.27;;;;;;;23.26;70.71;100977.09;5098244;28;20042;-87
2022/08/04 05:55:32;;;;;;;14.02;4.55;;;;;;;23.43;70.93;100975.75;5099087;28;20525;-88
2022/08/04 05:58:00;;;;;;;22.77;5.20;;;;;;;23.44;69.74;100981.03;5116704;28;20043;-87
2022/08/04 06:00:27;;;;;;;23.25;6.18;;;;;;;23.37;69.46;100991.63;5115354;28;20054;-88
2022/08/04 06:02:54;;;;;;;24.13;6.97;;;;;;;23.27;69.56;100981.53;5114778;28;20048;-87
2022/08/04 06:05:21;;;;;;;22.43;7.30;;;;;;;23.25;69.48;100977.41;5114761;28;20031;-87
2022/08/04 06:07:47;;;;;;;22.75;7.05;;;;;;;23.27;69.56;100981.53;5114535;28;20036;-88
2022/08/04 06:10:13;;;;;;;26.55;7.25;;;;;;;23.35;69.56;100980.03;5116156;28;20059;-87
2022/08/04 06:12:45;;;;;;;18.42;7.35;;;;;;;23.46;69.27;100980.72;5097709;28;20063;-87
2022/08/04 06:15:15;;;;;;;16.57;7.37;;;;;;;23.57;68.79;100982.19;5115427;28;20034;-89
2022/08/04 06:17:48;;;;;;;18.05;8.18;;;;;;;23.64;68.29;100990.94;5115284;28;20056;-88
2022/08/04 06:20:15;;;;;;;20.65;8.43;;;;;;;23.63;67.83;100985.72;5115001;28;20055;-88
2022/08/04 06:22:46;;;;;;;17.88;8.10;;;;;;;23.70;67.87;100993.66;5115070;28;20031;-87
2022/08/04 06:25:19;;;;;;;17.75;8.02;;;;;;;23.74;67.66;100991.91;5114886;28;20498;-87
2022/08/04 06:27:47;;;;;;;16.00;7.73;;;;;;;23.82;66.95;100989.28;5116617;28;20031;-88
2022/08/04 06:30:15;;;;;;;14.82;8.05;;;;;;;23.97;66.82;100990.19;5114667;28;20490;-88
2022/08/04 06:32:55;;;;;;;16.20;8.50;;;;;;;24.01;66.14;100993.19;5114182;28;20034;-88
2022/08/04 06:35:21;;;;;;;16.38;8.40;;;;;;;24.17;65.88;100998.16;5114897;28;20384;-88
2022/08/04 06:37:48;;;;;;;17.30;8.88;;;;;;;24.20;65.01;100991.19;5115716;28;20016;-88
2022/08/04 06:40:17;;;;;;;15.17;8.57;;;;;;;24.33;64.99;100998.72;5114666;28;20396;-88
2022/08/04 06:42:47;;;;;;;20.00;8.15;;;;;;;24.49;64.45;101003.97;5114140;28;20031;-88
2022/08/04 06:45:14;;;;;;;17.40;8.23;;;;;;;24.60;64.24;101005.47;5115609;28;20040;-87
2022/08/04 06:47:41;;;;;;;19.13;8.40;;;;;;;24.67;63.94;101005.88;5115384;28;20028;-88
2022/08/04 06:50:11;;;;;;;17.55;8.93;;;;;;;24.59;63.64;101005.75;5113942;28;20028;-88
2022/08/04 06:52:37;;;;;;;15.30;8.70;;;;;;;24.61;64.68;101009.03;5115556;28;20028;-88
2022/08/04 06:55:05;;;;;;;19.27;9.40;;;;;;;24.63;65.11;101004.84;5114514;28;20080;-89
2022/08/04 06:57:32;;;;;;;19.60;9.35;;;;;;;24.66;64.71;101008.97;5114372;28;20035;-89
2022/08/04 07:00:01;;;;;;;15.45;9.02;;;;;;;24.60;65.25;101002.69;5114282;28;20031;-88
2022/08/04 07:02:30;;;;;;;15.55;9.10;;;;;;;24.53;65.59;101010.56;5113681;28;20058;-88
2022/08/04 07:04:56;;;;;;;19.43;9.37;;;;;;;24.41;65.67;101008.28;5114401;28;20024;-87
2022/08/04 07:07:24;;;;;;;17.70;8.77;;;;;;;24.36;66.17;101008.38;5114231;28;20134;-88
2022/08/04 07:09:50;;;;;;;14.48;9.07;;;;;;;24.26;66.58;101005.78;5097126;28;20027;-89
2022/08/04 07:12:20;;;;;;;18.17;8.95;;;;;;;24.21;66.85;101008.63;5113475;28;20034;-88
2022/08/04 07:14:48;;;;;;;20.52;8.77;;;;;;;24.14;67.16;101012.63;5115532;27;20114;-88
2022/08/04 07:17:19;;;;;;;17.63;8.80;;;;;;;24.03;68.04;101005.59;5114628;28;20261;-88
2022/08/04 07:19:48;;;;;;;17.27;8.48;;;;;;;24.00;68.38;101014.53;5113913;28;20023;-88
2022/08/04 07:22:16;;;;;;;18.33;8.35;;;;;;;23.98;68.83;101005.69;5113459;28;20483;-88
2022/08/04 07:24:45;;;;;;;17.85;8.25;;;;;;;23.97;68.62;101021.47;5113734;28;20081;-89
2022/08/04 07:27:10;;;;;;;13.27;8.00;;;;;;;23.98;68.68;101009.28;5113822;28;20023;-88
2022/08/04 07:29:47;;;;;;;16.90;8.03;;;;;;;23.97;68.50;101021.47;5113639;28;20019;-88
2022/08/04 07:32:14;;;;;;;15.75;8.40;;;;;;;23.97;68.51;101026.22;5113850;28;20034;-88
2022/08/04 07:34:41;;;;;;;12.52;7.97;;;;;;;24.04;68.96;101031.38;5113401;28;20084;-88
2022/08/04 07:37:07;;;;;;;14.30;7.70;;;;;;;24.14;68.91;101028.44;5096744;28;20042;-88
2022/08/04 07:39:35;;;;;;;14.13;7.22;;;;;;;24.23;69.03;101023.03;5114543;28;20032;-88
2022/08/04 07:42:04;;;;;;;14.85;8.25;;;;;;;24.31;68.25;101027.88;5114203;28;20031;-88
2022/08/04 07:44:31;;;;;;;16.15;7.40;;;;;;;24.43;68.14;101030.97;5113298;28;20072;-88
2022/08/04 07:47:01;;;;;;;16.13;7.55;;;;;;;24.57;67.36;101021.88;5114467;28;20023;-88
2022/08/04 07:49:28;;;;;;;13.00;7.43;;;;;;;24.67;67.33;101024.47;5113705;28;20027;-88
2022/08/04 07:51:53;;;;;;;16.23;7.25;;;;;;;24.72;66.72;101026.34;5113647;28;20034;-88
2022/08/04 07:54:19;;;;;;;11.15;7.00;;;;;;;24.76;66.74;101025.41;5113513;28;20016;-88
2022/08/04 07:56:50;;;;;;;11.97;7.67;;;;;;;24.75;66.18;101025.72;5114582;28;20077;-93
2022/08/04 07:59:16;;;;;;;13.70;7.35;;;;;;;24.79;67.07;101026.75;5113404;28;20020;-84
2022/08/04 08:01:42;;;;;;;11.57;7.70;;;;;;;24.82;66.57;101032.50;5112644;28;20051;-84
2022/08/04 08:04:10;;;;;;;16.23;8.23;;;;;;;24.83;66.27;101044.41;5109833;28;20026;-85
2022/08/04 08:06:36;;;;;;;15.77;7.77;;;;;;;24.83;65.80;101045.25;5095213;28;20044;-85
2022/08/04 08:09:09;;;;;;;18.45;7.90;;;;;;;24.89;66.57;101045.94;5093188;28;20020;-87
2022/08/04 08:11:35;;;;;;;14.05;7.60;;;;;;;24.86;65.86;101047.41;5111315;28;20359;-86
2022/08/04 08:14:01;;;;;;;14.83;7.50;;;;;;;24.92;66.34;101059.25;5095729;28;20020;-85
2022/08/04 08:16:32;;;;;;;15.55;7.18;;;;;;;25.02;64.91;101056.25;5103420;28;20031;-86
2022/08/04 08:18:59;;;;;;;12.75;6.45;;;;;;;25.20;63.60;101050.88;5112964;28;20046;-85
2022/08/04 08:21:25;;;;;;;9.98;6.22;;;;;;;25.46;63.66;101048.41;5114187;28;20042;-85
2022/08/04 08:23:50;;;;;;;9.63;5.77;;;;;;;25.78;63.04;101046.59;5112911;28;20019;-85
2022/08/04 08:26:16;;;;;;;12.52;5.55;;;;;;;25.97;61.73;101052.00;5102578;28;20102;-86
2022/08/04 08:28:41;;;;;;;10.10;4.87;;;;;;;26.05;61.21;101047.66;5085584;28;20016;-85
2022/08/04 08:31:09;;;;;;;9.90;4.53;;;;;;;26.11;60.15;101051.13;5094313;28;20024;-86
2022/08/04 08:33:35;;;;;;;6.80;4.03;;;;;;;26.20;59.66;101063.13;5096549;28;20055;-86
2022/08/04 08:36:08;;;;;;;10.45;3.90;;;;;;;26.30;59.27;101070.41;5079930;28;20039;-85
2022/08/04 08:39:15;;;;;;;9.63;4.07;;;;;;;26.39;59.40;101082.41;5097936;28;20028;-86
2022/08/04 08:41:56;;;;;;;12.43;3.80;;;;;;;26.51;58.66;101077.06;5069688;28;20093;-86
2022/08/04 08:44:30;;;;;;;12.40;3.17;;;;;;;26.54;57.51;101081.19;5115505;28;20027;-85
2022/08/04 08:47:40;;;;;;;10.90;3.10;;;;;;;26.67;57.77;101077.53;5118385;28;20111;-85
2022/08/04 08:50:34;;;;;;;12.77;2.80;;;;;;;27.01;57.27;101086.38;5065107;28;20379;-87
2022/08/04 08:53:36;;;;;;;8.00;2.60;;;;;;;27.11;55.52;101092.47;5106260;28;20114;-85
2022/08/04 08:56:30;;;;;;;9.27;2.70;;;;;;;27.35;55.22;101082.09;5116482;28;20032;-84
2022/08/04 08:59:15;;;;;;;10.65;2.90;;;;;;;27.71;54.28;101081.00;5117034;28;20019;-85
2022/08/04 09:02:02;;;;;;;8.00;2.80;;;;;;;27.98;52.45;101083.50;5116315;28;20067;-85
2022/08/04 09:04:56;;;;;;;10.50;3.03;;;;;;;28.32;52.45;101086.59;5117985;28;20034;-84
2022/08/04 09:07:47;;;;;;;8.40;2.83;;;;;;;28.79;50.67;101083.03;5116130;28;20493;-85
2022/08/04 09:10:33;;;;;;;8.87;2.87;;;;;;;29.23;49.92;101092.06;5115617;28;20020;-85
2022/08/04 09:13:12;;;;;;;13.00;3.00;;;;;;;29.05;49.07;101082.94;5115571;28;20459;-85
2022/08/04 09:15:53;;;;;;;9.15;3.22;;;;;;;28.98;49.45;101086.28;5116395;28;20066;-85
2022/08/04 09:18:32;;;;;;;11.45;2.80;;;;;;;28.81;48.53;101087.16;5117847;28;20030;-86
2022/08/04 09:21:26;;;;;;;11.23;2.70;;;;;;;29.10;49.52;101082.75;5116171;28;20348;-85
2022/08/04 09:24:03;;;;;;;13.57;3.27;;;;;;;29.37;47.53;101089.88;5116052;28;20031;-85
2022/08/04 09:26:45;;;;;;;11.13;2.80;;;;;;;29.35;45.85;101091.34;5116161;28;20031;-87
2022/08/04 09:29:25;;;;;;;10.00;2.50;;;;;;;29.10;46.39;101107.91;5116019;28;20019;-85
2022/08/04 09:31:57;;;;;;;13.77;2.75;;;;;;;29.08;46.84;101106.59;5116780;28;20107;-86
2022/08/04 09:34:47;;;;;;;18.48;3.30;;;;;;;29.03;46.45;101105.63;5116189;28;20027;-85
2022/08/04 09:37:16;;;;;;;13.83;2.53;;;;;;;29.00;46.12;101111.88;5115685;28;20081;-85
2022/08/04 09:40:19;;;;;;;8.35;2.17;;;;;;;28.91;47.79;101108.31;5115808;28;20076;-85
2022/08/04 09:42:56;;;;;;;12.90;2.88;;;;;;;28.80;45.94;101121.78;5115143;28;20363;-85
2022/08/04 09:45:28;;;;;;;10.32;2.85;;;;;;;28.86;46.32;101130.81;5117305;28;20052;-85
2022/08/04 09:48:04;;;;;;;9.32;2.90;;;;;;;28.91;46.17;101127.00;5117038;28;20055;-85
2022/08/04 09:50:44;;;;;;;12.77;2.63;;;;;;;28.91;46.12;101127.00;5115603;28;20375;-85
2022/08/04 09:53:40;;;;;;;14.77;3.10;;;;;;;28.92;46.91;101131.47;5115476;28;20019;-85
2022/08/04 09:56:05;;;;;;;10.55;2.60;;;;;;;28.80;46.76;101132.16;5116432;28;20456;-84
2022/08/04 09:58:59;;;;;;;12.10;2.70;;;;;;;28.49;47.35;101141.53;5116685;28;20110;-85
2022/08/04 10:01:27;;;;;;;10.10;2.97;;;;;;;28.03;48.55;101145.84;5115192;28;20044;-84
2022/08/04 10:04:02;;;;;;;15.70;3.25;;;;;;;27.61;50.14;101166.56;5098329;28;20035;-85
2022/08/04 10:06:49;;;;;;;14.82;3.03;;;;;;;27.26;51.08;101146.09;5114807;28;20030;-85
2022/08/04 10:09:26;;;;;;;12.80;3.23;;;;;;;26.97;52.37;101141.84;5116540;28;20026;-85
2022/08/04 10:11:57;;;;;;;14.52;3.10;;;;;;;26.72;53.26;101146.13;5115833;28;20026;-85
2022/08/04 10:14:48;;;;;;;16.52;3.60;;;;;;;26.41;54.50;101144.94;5116058;28;20019;-85
2022/08/04 10:17:50;;;;;;;10.07;2.88;;;;;;;26.19;55.58;101181.03;5115112;28;20372;-84
2022/08/04 10:20:43;;;;;;;12.20;3.08;;;;;;;25.91;57.29;101214.47;5115733;28;20035;-85
2022/08/04 10:23:22;;;;;;;10.37;2.90;;;;;;;25.65;59.74;101228.06;5115928;28;20035;-84
2022/08/04 10:26:14;;;;;;;12.70;2.85;;;;;;;25.45;60.83;101243.97;5114978;28;20038;-85
2022/08/04 10:28:54;;;;;;;8.30;2.80;;;;;;;25.01;68.75;101225.88;5114822;28;20034;-84
2022/08/04 10:31:26;;;;;;;14.20;2.80;;;;;;;24.26;74.29;101233.13;5114943;28;20128;-85
2022/08/04 10:33:59;;;;;;;13.75;3.40;;;;;;;23.55;76.70;101228.13;5115130;28;20371;-85
2022/08/04 10:36:29;;;;;;;12.07;3.80;;;;;;;22.99;84.45;101209.28;5114899;28;20035;-85
2022/08/04 10:39:05;;;;;;;13.70;3.92;;;;;;;22.70;87.05;101193.50;5114841;28;20165;-84
2022/08/04 10:41:46;;;;;;;11.35;3.97;;;;;;;22.67;91.52;101163.66;5114549;28;20129;-84
2022/08/04 10:44:31;;;;;;;13.45;4.22;;;;;;;22.71;91.67;101156.44;5114677;28;20026;-84
2022/08/04 10:47:03;;;;;;;16.35;4.65;;;;;;;22.79;93.71;101144.72;5115629;28;20047;-84
2022/08/04 10:49:36;;;;;;;18.20;4.80;;;;;;;22.95;93.86;101145.41;5114419;28;20023;-84
2022/08/04 10:52:10;;;;;;;19.45;4.57;;;;;;;23.11;89.98;101154.44;5114416;28;20023;-85
2022/08/04 10:55:07;;;;;;;11.63;4.20;;;;;;;23.61;89.18;101154.94;5115599;28;20447;-85
2022/08/04 10:57:45;;;;;;;12.52;4.50;;;;;;;24.10;90.66;101155.69;5115363;28;20023;-85
2022/08/04 11:00:18;;;;;;;10.30;4.32;;;;;;;24.01;87.32;101165.00;5113991;28;20016;-85
2022/08/04 11:03:14;;;;;;;12.17;4.40;;;;;;;24.07;88.58;101175.72;5114056;28;20047;-85
2022/08/04 11:05:45;;;;;;;19.05;5.05;;;;;;;23.91;88.70;101188.13;5114216;28;20023;-85
2022/08/04 11:08:20;;;;;;;16.83;5.07;;;;;;;23.74;86.22;101186.66;5114158;28;20414;-85
2022/08/04 11:11:11;;;;;;;15.70;4.57;;;;;;;23.77;88.87;101176.91;5114362;28;20016;-85
2022/08/04 11:13:43;;;;;;;12.55;4.45;;;;;;;23.82;90.10;101169.34;5115339;28;20020;-84
2022/08/04 11:16:34;;;;;;;11.37;4.77;;;;;;;23.88;86.75;101156.28;5114188;28;20027;-85
2022/08/04 11:19:16;;;;;;;6.00;4.07;;;;;;;24.01;86.31;101156.69;5113940;28;20031;-84
2022/08/04 11:21:55;;;;;;;9.25;4.53;;;;;;;24.31;84.71;101152.63;5114929;28;20028;-84
2022/08/04 11:24:33;;;;;;;14.07;4.68;;;;;;;25.03;85.29;101155.03;5113881;28;20374;-85
2022/08/04 11:27:04;;;;;;;9.63;5.05;;;;;;;25.73;77.84;101158.69;5113895;28;20034;-84
2022/08/04 11:29:51;;;;;;;10.90;4.53;;;;;;;26.63;76.34;101150.81;5114777;28;20023;-85
2022/08/04 11:32:25;;;;;;;9.35;4.50;;;;;;;27.88;70.74;101149.91;5113674;28;20118;-85
2022/08/04 11:34:58;;;;;;;11.55;4.47;;;;;;;31.27;58.82;101158.78;5113914;28;20033;-85
2022/08/04 11:37:48;;;;;;;7.63;3.78;;;;;;;34.81;56.67;101160.44;5113505;28;20364;-85
2022/08/04 11:40:23;;;;;;;7.70;3.92;;;;;;;37.57;46.49;101153.84;5113568;28;20088;-85
2022/08/04 11:43:24;;;;;;;9.27;3.60;;;;;;;40.21;42.83;101160.72;5113036;28;20050;-85
2022/08/04 11:46:02;;;;;;;7.00;3.58;;;;;;;40.78;38.00;101159.56;5114960;28;20051;-85
2022/08/04 11:48:44;;;;;;;7.80;3.78;;;;;;;41.88;35.75;101167.56;5114330;28;20028;-86
2022/08/04 11:51:10;;;;;;;5.60;3.17;;;;;;;43.03;26.89;101142.34;5113331;28;20118;-85
2022/08/04 11:53:38;;;;;;;7.70;3.03;;;;;;;41.79;28.80;101141.63;5114593;28;20055;-86
2022/08/04 11:56:09;;;;;;;8.07;3.80;;;;;;;40.19;30.23;101140.44;5113349;28;20092;-85
2022/08/04 11:58:37;;;;;;;10.38;4.32;;;;;;;38.78;32.25;101149.13;5113113;28;20023;-86
2022/08/04 12:01:26;;;;;;;10.75;4.68;;;;;;;38.17;35.66;101135.59;5096326;28;20027;-85
2022/08/04 12:04:12;;;;;;;8.32;4.32;;;;;;;39.26;33.05;101150.81;5112775;28;20034;-85
2022/08/04 12:06:48;;;;;;;5.10;4.40;;;;;;;40.97;30.17;101147.69;5112164;28;20024;-86
2022/08/04 12:09:42;;;;;;;7.37;3.77;;;;;;;42.80;29.50;101146.75;5114513;28;20035;-86